Time,TemperatureF,DewpointF,PressureIn,WindDirection,WindDirectionDegrees,WindSpeedMPH,WindSpeedGustMPH,Humidity,HourlyPrecipIn,Conditions,Clouds,dailyrainin,SoftwareType,DateUTC
2013-03-04 00:14:00,26.6,23.0,29.52,SSW,202,1.7,-999.0,86,-99.99,,,0.00,Acu-Link.com,2013-03-04 05:14:00,
2013-03-04 00:29:00,26.4,22.8,29.53,SSW,202,2.2,-999.0,86,-99.99,,,0.00,Acu-Link.com,2013-03-04 05:29:00,
2013-03-04 00:44:00,26.1,22.2,29.53,SSW,202,2.7,-999.0,85,-99.99,,,0.00,Acu-Link.com,2013-03-04 05:44:00,
2013-03-04 00:59:00,25.9,22.0,29.54,South,180,0.0,-999.0,85,-99.99,,,0.00,Acu-Link.com,2013-03-04 05:59:00,
2013-03-04 01:14:00,25.5,21.6,29.54,South,180,0.0,-999.0,85,-99.99,,,0.00,Acu-Link.com,2013-03-04 06:14:00,
2013-03-04 01:29:00,25.5,21.1,29.54,South,180,0.0,-999.0,83,-99.99,,,0.00,Acu-Link.com,2013-03-04 06:29:00,
2013-03-04 01:44:00,25.3,20.0,29.54,South,180,1.7,-999.0,80,-99.99,,,0.00,Acu-Link.com,2013-03-04 06:44:00,
2013-03-04 01:59:00,25.2,19.9,29.54,South,180,2.2,-999.0,80,-99.99,,,0.00,Acu-Link.com,2013-03-04 06:59:00,
2013-03-04 02:14:00,25.0,20.0,29.54,SSW,202,2.7,-999.0,81,-99.99,,,0.00,Acu-Link.com,2013-03-04 07:14:00,
2013-03-04 02:30:00,24.8,19.2,29.53,SSW,202,1.7,-999.0,79,-99.99,,,0.00,Acu-Link.com,2013-03-04 07:30:00,
2013-03-04 02:45:00,24.4,19.4,29.53,WSW,247,0.0,-999.0,81,-99.99,,,0.00,Acu-Link.com,2013-03-04 07:45:00,
2013-03-04 03:00:00,24.3,19.3,29.53,WSW,247,0.0,-999.0,81,-99.99,,,0.00,Acu-Link.com,2013-03-04 08:00:00,
2013-03-04 03:15:00,23.5,18.8,29.53,WNW,292,0.0,-999.0,82,-99.99,,,0.00,Acu-Link.com,2013-03-04 08:15:00,
2013-03-04 03:30:00,23.0,18.6,29.53,WNW,292,0.0,-999.0,83,-99.99,,,0.00,Acu-Link.com,2013-03-04 08:30:00,
2013-03-04 03:45:00,22.6,17.9,29.54,ESE,112,0.0,-999.0,82,-99.99,,,0.00,Acu-Link.com,2013-03-04 08:45:00,
2013-03-04 04:00:00,22.3,17.9,29.54,ESE,112,0.0,-999.0,83,-99.99,,,0.00,Acu-Link.com,2013-03-04 09:00:00,
2013-03-04 04:20:00,22.3,17.9,29.54,ESE,112,1.7,-999.0,83,-99.99,,,0.00,Acu-Link.com,2013-03-04 09:20:00,
2013-03-04 04:35:00,22.3,17.7,29.55,ESE,112,2.2,-999.0,82,-99.99,,,0.00,Acu-Link.com,2013-03-04 09:35:00,
2013-03-04 04:50:00,22.3,17.7,29.55,East,90,1.1,-999.0,82,-99.99,,,0.00,Acu-Link.com,2013-03-04 09:50:00,
2013-03-04 05:05:00,22.5,17.6,29.55,SW,225,0.0,-999.0,81,-99.99,,,0.00,Acu-Link.com,2013-03-04 10:05:00,
2013-03-04 05:20:00,22.5,17.9,29.55,SW,225,0.0,-999.0,82,-99.99,,,0.00,Acu-Link.com,2013-03-04 10:20:00,
2013-03-04 05:35:00,22.5,17.9,29.55,ESE,112,1.7,-999.0,82,-99.99,,,0.00,Acu-Link.com,2013-03-04 10:35:00,
2013-03-04 05:51:00,22.5,17.9,29.55,ESE,112,0.0,-999.0,82,-99.99,,,0.00,Acu-Link.com,2013-03-04 10:51:00,
2013-03-04 06:06:00,22.5,18.1,29.55,ESE,112,0.0,-999.0,83,-99.99,,,0.00,Acu-Link.com,2013-03-04 11:06:00,
2013-03-04 06:21:00,22.1,17.7,29.55,ESE,112,0.0,-999.0,83,-99.99,,,0.00,Acu-Link.com,2013-03-04 11:21:00,
2013-03-04 06:36:00,22.3,17.9,29.56,ESE,112,0.0,-999.0,83,-99.99,,,0.00,Acu-Link.com,2013-03-04 11:36:00,
2013-03-04 06:51:00,22.8,18.1,29.56,ESE,112,0.0,-999.0,82,-99.99,,,0.00,Acu-Link.com,2013-03-04 11:51:00,
2013-03-04 07:06:00,23.4,18.4,29.56,South,180,0.0,-999.0,81,-99.99,,,0.00,Acu-Link.com,2013-03-04 12:06:00,
2013-03-04 07:21:00,24.1,18.5,29.56,South,180,2.7,-999.0,79,-99.99,,,0.00,Acu-Link.com,2013-03-04 12:21:00,
2013-03-04 07:36:00,25.2,19.3,29.56,South,180,0.0,-999.0,78,-99.99,,,0.00,Acu-Link.com,2013-03-04 12:36:00,
2013-03-04 07:51:00,26.4,19.9,29.56,South,180,1.7,-999.0,76,-99.99,,,0.00,Acu-Link.com,2013-03-04 12:51:00,
2013-03-04 08:07:00,26.8,19.3,29.56,ENE,67,2.7,-999.0,73,-99.99,,,0.00,Acu-Link.com,2013-03-04 13:07:00,
2013-03-04 08:22:00,27.0,19.8,29.55,South,180,1.1,-999.0,74,-99.99,,,0.00,Acu-Link.com,2013-03-04 13:22:00,
2013-03-04 08:37:00,28.0,19.8,29.55,South,180,1.7,-999.0,71,-99.99,,,0.00,Acu-Link.com,2013-03-04 13:37:00,
2013-03-04 08:52:00,28.6,20.1,29.56,South,180,3.2,-999.0,70,-99.99,,,0.00,Acu-Link.com,2013-03-04 13:52:00,
2013-03-04 09:07:00,27.5,19.7,29.55,NW,315,1.7,-999.0,72,-99.99,,,0.00,Acu-Link.com,2013-03-04 14:07:00,
2013-03-04 09:22:00,28.2,20.0,29.55,South,180,1.1,-999.0,71,-99.99,,,0.00,Acu-Link.com,2013-03-04 14:22:00,
2013-03-04 09:37:00,28.4,20.5,29.55,ESE,112,3.7,-999.0,72,-99.99,,,0.00,Acu-Link.com,2013-03-04 14:37:00,
2013-03-04 09:52:00,29.5,20.6,29.55,ESE,112,3.7,-999.0,69,-99.99,,,0.00,Acu-Link.com,2013-03-04 14:52:00,
2013-03-04 10:07:00,29.1,20.2,29.54,ESE,112,3.2,-999.0,69,-99.99,,,0.00,Acu-Link.com,2013-03-04 15:07:00,
2013-03-04 10:23:00,28.6,20.4,29.55,South,180,2.2,-999.0,71,-99.99,,,0.00,Acu-Link.com,2013-03-04 15:23:00,
2013-03-04 10:38:00,29.5,21.3,29.55,SSE,157,2.7,-999.0,71,-99.99,,,0.00,Acu-Link.com,2013-03-04 15:38:00,
2013-03-04 10:53:00,29.8,20.5,29.55,ESE,112,5.3,-999.0,68,-99.99,,,0.00,Acu-Link.com,2013-03-04 15:53:00,
2013-03-04 11:08:00,30.2,20.6,29.55,SE,135,0.0,-999.0,67,-99.99,,,0.00,Acu-Link.com,2013-03-04 16:08:00,
2013-03-04 11:23:00,30.9,20.9,29.55,South,180,2.7,-999.0,66,-99.99,,,0.00,Acu-Link.com,2013-03-04 16:23:00,
2013-03-04 11:38:00,32.2,22.8,29.55,West,270,2.7,-999.0,68,-99.99,,,0.00,Acu-Link.com,2013-03-04 16:38:00,
2013-03-04 11:53:00,32.4,22.7,29.54,WNW,292,3.7,-999.0,67,-99.99,,,0.00,Acu-Link.com,2013-03-04 16:53:00,
2013-03-04 12:08:00,32.4,22.3,29.54,West,270,3.2,-999.0,66,-99.99,,,0.00,Acu-Link.com,2013-03-04 17:08:00,
2013-03-04 12:23:00,32.2,21.4,29.53,SSW,202,3.2,-999.0,64,-99.99,,,0.00,Acu-Link.com,2013-03-04 17:23:00,
2013-03-04 12:39:00,31.8,23.2,29.53,SSW,202,2.2,-999.0,70,-99.99,,,0.00,Acu-Link.com,2013-03-04 17:39:00,
2013-03-04 12:54:00,33.4,22.6,29.53,SSW,202,1.7,-999.0,64,-99.99,,,0.00,Acu-Link.com,2013-03-04 17:54:00,
2013-03-04 13:09:00,32.5,21.7,29.53,NNW,337,4.2,-999.0,64,-99.99,,,0.00,Acu-Link.com,2013-03-04 18:09:00,
2013-03-04 13:24:00,33.1,22.6,29.52,NE,45,4.2,-999.0,65,-99.99,,,0.00,Acu-Link.com,2013-03-04 18:24:00,
2013-03-04 13:39:00,33.1,21.9,29.53,NNW,337,1.7,-999.0,63,-99.99,,,0.00,Acu-Link.com,2013-03-04 18:39:00,
2013-03-04 13:54:00,34.5,22.5,29.52,SSW,202,1.7,-999.0,61,-99.99,,,0.00,Acu-Link.com,2013-03-04 18:54:00,
2013-03-04 14:09:00,34.0,22.4,29.53,SSW,202,0.0,-999.0,62,-99.99,,,0.00,Acu-Link.com,2013-03-04 19:09:00,
2013-03-04 14:24:00,34.0,22.0,29.53,SSW,202,2.7,-999.0,61,-99.99,,,0.00,Acu-Link.com,2013-03-04 19:24:00,
2013-03-04 14:39:00,33.8,23.3,29.53,ENE,67,0.0,-999.0,65,-99.99,,,0.00,Acu-Link.com,2013-03-04 19:39:00,
2013-03-04 14:54:00,34.9,23.2,29.53,WSW,247,0.0,-999.0,62,-99.99,,,0.00,Acu-Link.com,2013-03-04 19:54:00,
2013-03-04 15:10:00,33.6,23.5,29.53,SSE,157,2.2,-999.0,66,-99.99,,,0.00,Acu-Link.com,2013-03-04 20:10:00,
2013-03-04 15:25:00,33.3,23.9,29.53,SSE,157,1.7,-999.0,68,-99.99,,,0.00,Acu-Link.com,2013-03-04 20:25:00,
2013-03-04 15:40:00,33.4,23.6,29.54,NNW,337,0.0,-999.0,67,-99.99,,,0.00,Acu-Link.com,2013-03-04 20:40:00,
2013-03-04 15:55:00,33.1,23.0,29.54,NNW,337,2.2,-999.0,66,-99.99,,,0.00,Acu-Link.com,2013-03-04 20:55:00,
2013-03-04 16:10:00,32.5,23.5,29.54,SSW,202,1.1,-999.0,69,-99.99,,,0.00,Acu-Link.com,2013-03-04 21:10:00,
2013-03-04 16:25:00,32.5,22.4,29.55,SSE,157,4.7,-999.0,66,-99.99,,,0.00,Acu-Link.com,2013-03-04 21:25:00,
2013-03-04 16:40:00,31.8,22.8,29.56,SSW,202,3.2,-999.0,69,-99.99,,,0.00,Acu-Link.com,2013-03-04 21:40:00,
2013-03-04 16:55:00,31.1,22.5,29.57,SW,225,1.1,-999.0,70,-99.99,,,0.00,Acu-Link.com,2013-03-04 21:55:00,
2013-03-04 17:10:00,30.9,22.3,29.58,SW,225,1.1,-999.0,70,-99.99,,,0.00,Acu-Link.com,2013-03-04 22:10:00,
2013-03-04 17:26:00,30.4,22.8,29.58,NNW,337,2.7,-999.0,73,-99.99,,,0.00,Acu-Link.com,2013-03-04 22:26:00,
2013-03-04 17:41:00,30.2,22.3,29.59,SSE,157,0.0,-999.0,72,-99.99,,,0.00,Acu-Link.com,2013-03-04 22:41:00,
2013-03-04 17:56:00,29.8,22.5,29.60,South,180,2.7,-999.0,74,-99.99,,,0.00,Acu-Link.com,2013-03-04 22:56:00,
2013-03-04 18:11:00,29.7,22.1,29.61,SSW,202,1.1,-999.0,73,-99.99,,,0.00,Acu-Link.com,2013-03-04 23:11:00,
2013-03-04 18:26:00,29.3,22.4,29.63,ESE,112,2.2,-999.0,75,-99.99,,,0.00,Acu-Link.com,2013-03-04 23:26:00,
2013-03-04 18:41:00,29.1,23.4,29.64,NNW,337,2.2,-999.0,79,-99.99,,,0.00,Acu-Link.com,2013-03-04 23:41:00,
2013-03-04 18:57:00,28.6,22.3,29.64,SW,225,1.1,-999.0,77,-99.99,,,0.00,Acu-Link.com,2013-03-04 23:57:00,
2013-03-04 19:12:00,27.9,22.2,29.65,NNW,337,0.0,-999.0,79,-99.99,,,0.00,Acu-Link.com,2013-03-05 00:12:00,
2013-03-04 19:27:00,27.3,22.5,29.65,NNW,337,2.7,-999.0,82,-99.99,,,0.00,Acu-Link.com,2013-03-05 00:27:00,
2013-03-04 19:42:00,27.1,22.3,29.66,SSW,202,0.0,-999.0,82,-99.99,,,0.00,Acu-Link.com,2013-03-05 00:42:00,
2013-03-04 19:57:00,26.8,21.8,29.66,ESE,112,4.7,-999.0,81,-99.99,,,0.00,Acu-Link.com,2013-03-05 00:57:00,
2013-03-04 20:12:00,26.6,21.3,29.66,WNW,292,2.2,-999.0,80,-99.99,,,0.00,Acu-Link.com,2013-03-05 01:12:00,
2013-03-04 20:27:00,26.6,21.6,29.67,WNW,292,1.1,-999.0,81,-99.99,,,0.00,Acu-Link.com,2013-03-05 01:27:00,
2013-03-04 20:42:00,26.4,20.5,29.67,SSE,157,1.7,-999.0,78,-99.99,,,0.00,Acu-Link.com,2013-03-05 01:42:00,
2013-03-04 20:57:00,26.4,21.4,29.68,SSE,157,1.7,-999.0,81,-99.99,,,0.00,Acu-Link.com,2013-03-05 01:57:00,
2013-03-04 21:13:00,26.1,21.4,29.68,NNW,337,0.0,-999.0,82,-99.99,,,0.00,Acu-Link.com,2013-03-05 02:13:00,
2013-03-04 21:28:00,26.1,21.1,29.68,SSE,157,2.2,-999.0,81,-99.99,,,0.00,Acu-Link.com,2013-03-05 02:28:00,
2013-03-04 21:43:00,26.1,21.1,29.68,SSE,157,0.0,-999.0,81,-99.99,,,0.00,Acu-Link.com,2013-03-05 02:43:00,
2013-03-04 21:58:00,26.1,20.8,29.69,SSE,157,2.2,-999.0,80,-99.99,,,0.00,Acu-Link.com,2013-03-05 02:58:00,
2013-03-04 22:13:00,26.1,21.1,29.69,SSE,157,0.0,-999.0,81,-99.99,,,0.00,Acu-Link.com,2013-03-05 03:13:00,
2013-03-04 22:28:00,26.2,21.2,29.70,SSE,157,0.0,-999.0,81,-99.99,,,0.00,Acu-Link.com,2013-03-05 03:28:00,
2013-03-04 22:43:00,26.2,21.2,29.70,SSE,157,0.0,-999.0,81,-99.99,,,0.00,Acu-Link.com,2013-03-05 03:43:00,
2013-03-04 22:59:00,26.1,21.1,29.70,SW,225,1.7,-999.0,81,-99.99,,,0.00,Acu-Link.com,2013-03-05 03:59:00,
2013-03-04 23:14:00,26.1,21.1,29.69,SW,225,1.7,-999.0,81,-99.99,,,0.00,Acu-Link.com,2013-03-05 04:14:00,
2013-03-04 23:29:00,25.9,20.6,29.70,SW,225,2.2,-999.0,80,-99.99,,,0.00,Acu-Link.com,2013-03-05 04:29:00,
2013-03-04 23:44:00,25.9,20.9,29.70,SSE,157,0.0,-999.0,81,-99.99,,,0.00,Acu-Link.com,2013-03-05 04:44:00,